Time;durP1;ratioP1;P1;durP2;ratioP2;P2;SDS_P1;SDS_P2;PMS_P1;PMS_P2;Temp;Humidity;BMP_temperature;BMP_pressure;BME280_temperature;BME280_humidity;BME280_pressure;Samples;Min_cycle;Max_cycle;Signal;HPM_P1;HPM_P2
2023/12/14 00:00:19;;;;;;;1.53;1.20;;;5.40;99.90;;;;;;4995201;28;21162;-79
2023/12/14 00:02:44;;;;;;;1.70;1.37;;;5.40;99.90;;;;;;4994256;28;20038;-80
2023/12/14 00:05:10;;;;;;;3.93;1.40;;;5.40;99.90;;;;;;4995683;28;20039;-80
2023/12/14 00:07:38;;;;;;;2.83;1.60;;;5.30;99.90;;;;;;4994376;28;20589;-79
2023/12/14 00:10:05;;;;;;;4.47;1.20;;;5.30;99.90;;;;;;4994703;28;20049;-79
2023/12/14 00:12:31;;;;;;;2.40;1.40;;;5.30;99.90;;;;;;4994338;28;20742;-82
2023/12/14 00:14:56;;;;;;;3.07;1.80;;;5.30;99.90;;;;;;4995601;28;20032;-81
2023/12/14 00:17:22;;;;;;;2.13;1.50;;;5.30;99.90;;;;;;4992771;28;20072;-79
2023/12/14 00:19:48;;;;;;;2.30;1.40;;;5.30;99.90;;;;;;4995432;28;20519;-79
2023/12/14 00:22:13;;;;;;;2.73;1.40;;;5.30;99.90;;;;;;4996460;28;20034;-80
2023/12/14 00:24:39;;;;;;;2.47;1.40;;;5.30;99.90;;;;;;4992865;28;21659;-80
2023/12/14 00:27:04;;;;;;;2.37;1.77;;;5.30;99.90;;;;;;4994522;28;20445;-79
2023/12/14 00:29:30;;;;;;;2.33;1.60;;;5.40;99.90;;;;;;4992049;28;20026;-81
2023/12/14 00:31:56;;;;;;;3.70;1.90;;;5.40;99.90;;;;;;4994022;28;20022;-80
2023/12/14 00:34:21;;;;;;;4.30;1.90;;;5.40;99.90;;;;;;4994301;28;20122;-80
2023/12/14 00:36:49;;;;;;;3.17;1.87;;;5.30;99.90;;;;;;4994924;28;20391;-79
2023/12/14 00:39:15;;;;;;;2.70;1.50;;;5.40;99.90;;;;;;4994072;28;20037;-79
2023/12/14 00:41:40;;;;;;;2.33;1.60;;;5.30;99.90;;;;;;4995761;28;20114;-80
2023/12/14 00:44:06;;;;;;;4.70;2.00;;;5.40;99.90;;;;;;4993898;28;20496;-81
2023/12/14 00:46:32;;;;;;;2.17;1.70;;;5.40;99.90;;;;;;4994456;28;20030;-80
2023/12/14 00:48:57;;;;;;;4.70;1.63;;;5.40;99.90;;;;;;4994505;28;20030;-80
2023/12/14 00:51:23;;;;;;;2.67;1.80;;;5.40;99.90;;;;;;4993029;28;20059;-80
2023/12/14 00:53:48;;;;;;;2.60;1.70;;;5.40;99.90;;;;;;4992645;28;20133;-81
2023/12/14 00:56:14;;;;;;;2.27;1.60;;;5.40;99.90;;;;;;4992912;28;20176;-80
2023/12/14 00:58:39;;;;;;;3.83;1.57;;;5.40;99.90;;;;;;4993636;28;20041;-80
2023/12/14 01:01:05;;;;;;;4.00;1.90;;;5.40;99.90;;;;;;4991926;28;20033;-80
2023/12/14 01:03:30;;;;;;;2.53;1.50;;;5.40;99.90;;;;;;4993754;28;20027;-83
2023/12/14 01:05:56;;;;;;;2.73;1.43;;;5.40;99.90;;;;;;4992572;28;20374;-80
2023/12/14 01:08:22;;;;;;;3.57;1.40;;;5.40;99.90;;;;;;4992589;28;20481;-81
2023/12/14 01:10:47;;;;;;;1.70;1.40;;;5.40;99.90;;;;;;4994801;28;20033;-80
2023/12/14 01:13:13;;;;;;;1.97;1.40;;;5.40;99.90;;;;;;4996615;28;20143;-81
2023/12/14 01:15:38;;;;;;;2.07;1.50;;;5.30;99.90;;;;;;4997569;28;20412;-80
2023/12/14 01:18:04;;;;;;;4.97;1.50;;;5.30;99.90;;;;;;4997133;28;20037;-80
2023/12/14 01:20:29;;;;;;;1.43;1.20;;;5.40;99.90;;;;;;4996753;28;20034;-80
2023/12/14 01:22:55;;;;;;;1.60;1.20;;;5.40;99.90;;;;;;4997212;28;20040;-80
2023/12/14 01:25:20;;;;;;;1.80;1.10;;;5.40;99.90;;;;;;5000358;28;20034;-79
2023/12/14 01:27:46;;;;;;;1.23;1.10;;;5.30;99.90;;;;;;4995789;28;20041;-80
2023/12/14 01:30:12;;;;;;;1.50;1.00;;;5.30;99.90;;;;;;4995624;28;20038;-80
2023/12/14 01:32:37;;;;;;;1.57;1.20;;;5.30;99.90;;;;;;4995928;28;20034;-80
2023/12/14 01:35:04;;;;;;;1.17;1.07;;;5.20;99.90;;;;;;4996492;28;20026;-79
2023/12/14 01:37:29;;;;;;;1.83;1.33;;;5.20;99.90;;;;;;4999015;28;20029;-79
2023/12/14 01:39:55;;;;;;;1.67;1.20;;;5.20;99.90;;;;;;4996268;28;20026;-79
2023/12/14 01:42:20;;;;;;;1.20;1.00;;;5.20;99.90;;;;;;4995368;28;20034;-79
2023/12/14 01:44:46;;;;;;;1.13;1.03;;;5.20;99.90;;;;;;4995602;28;20764;-79
2023/12/14 01:47:11;;;;;;;1.13;1.00;;;5.20;99.90;;;;;;4994383;28;20049;-79
2023/12/14 01:49:37;;;;;;;1.53;1.00;;;5.10;99.90;;;;;;4996347;28;20037;-81
2023/12/14 01:52:03;;;;;;;1.13;0.93;;;5.10;99.90;;;;;;4993347;28;20527;-80
2023/12/14 01:54:28;;;;;;;3.83;1.00;;;5.10;99.90;;;;;;4993541;28;20033;-79
2023/12/14 01:56:54;;;;;;;1.07;0.90;;;5.10;99.90;;;;;;4997223;28;20105;-80
2023/12/14 01:59:20;;;;;;;1.40;1.07;;;5.00;99.90;;;;;;4996753;28;20136;-79
2023/12/14 02:01:51;;;;;;;1.20;1.10;;;5.00;99.90;;;;;;4998594;28;20041;-80
2023/12/14 02:04:17;;;;;;;1.60;1.20;;;5.00;99.90;;;;;;4995626;28;20685;-80
2023/12/14 02:06:43;;;;;;;2.57;1.70;;;5.00;99.90;;;;;;4995652;28;20041;-80
2023/12/14 02:09:09;;;;;;;2.10;1.63;;;4.90;99.90;;;;;;4996646;28;20030;-80
2023/12/14 02:11:35;;;;;;;1.80;1.50;;;4.90;99.90;;;;;;4996543;28;20034;-80
2023/12/14 02:14:09;;;;;;;1.97;1.40;;;4.90;99.90;;;;;;4997912;28;20018;-79
2023/12/14 02:16:35;;;;;;;2.33;1.50;;;4.90;99.90;;;;;;4998266;28;20026;-80
2023/12/14 02:19:00;;;;;;;2.50;1.80;;;4.90;99.90;;;;;;4996527;28;20428;-80
2023/12/14 02:21:26;;;;;;;2.63;1.83;;;4.90;99.90;;;;;;4996632;28;20037;-80
2023/12/14 02:23:52;;;;;;;2.40;2.13;;;4.90;99.90;;;;;;4996137;28;20032;-81
2023/12/14 02:26:17;;;;;;;5.00;2.10;;;4.90;99.90;;;;;;4997223;28;20193;-80
2023/12/14 02:28:43;;;;;;;2.83;2.20;;;4.90;99.90;;;;;;4994492;28;20485;-80
2023/12/14 02:31:08;;;;;;;2.77;2.20;;;4.90;99.90;;;;;;4994951;28;20412;-80
2023/12/14 02:33:34;;;;;;;3.10;2.40;;;4.90;99.90;;;;;;4995802;28;20077;-80
2023/12/14 02:36:00;;;;;;;3.10;2.47;;;4.90;99.90;;;;;;4994080;28;20378;-81
2023/12/14 02:38:25;;;;;;;2.83;2.53;;;4.90;99.90;;;;;;4996944;28;20030;-79
2023/12/14 02:40:52;;;;;;;3.17;2.40;;;4.80;99.90;;;;;;4996897;28;20025;-79
2023/12/14 02:43:20;;;;;;;2.63;2.33;;;4.80;99.90;;;;;;4994934;28;20366;-80
2023/12/14 02:45:46;;;;;;;3.20;2.43;;;4.80;99.90;;;;;;4996051;28;20022;-79
2023/12/14 02:48:12;;;;;;;3.17;2.60;;;4.80;99.90;;;;;;4977879;28;20033;-80
2023/12/14 02:50:40;;;;;;;3.77;2.50;;;4.80;99.90;;;;;;4996598;28;20140;-79
2023/12/14 02:53:05;;;;;;;3.33;2.47;;;4.80;99.90;;;;;;4995701;28;20033;-79
2023/12/14 02:55:31;;;;;;;3.43;2.67;;;4.80;99.90;;;;;;4994417;28;20036;-79
2023/12/14 02:57:56;;;;;;;4.03;3.00;;;4.80;99.90;;;;;;4993549;28;20032;-79
2023/12/14 03:00:22;;;;;;;3.30;2.27;;;4.80;99.90;;;;;;4997307;28;20735;-79
2023/12/14 03:02:47;;;;;;;4.67;2.83;;;4.80;99.90;;;;;;4995720;28;20034;-79
2023/12/14 03:05:13;;;;;;;2.97;2.50;;;4.80;99.90;;;;;;4993215;28;20026;-80
2023/12/14 03:07:39;;;;;;;3.70;2.73;;;4.80;99.90;;;;;;4996508;28;20061;-80
2023/12/14 03:10:05;;;;;;;3.30;3.00;;;4.80;99.90;;;;;;4995171;28;20041;-81
2023/12/14 03:12:30;;;;;;;4.87;3.07;;;4.80;99.90;;;;;;4995258;28;20076;-80
2023/12/14 03:14:56;;;;;;;3.87;2.90;;;4.80;99.90;;;;;;4996109;28;20097;-80
2023/12/14 03:17:21;;;;;;;5.07;3.03;;;4.80;99.90;;;;;;4976943;28;20034;-79
2023/12/14 03:19:47;;;;;;;4.03;3.40;;;4.80;99.90;;;;;;4994735;28;20037;-80
2023/12/14 03:22:13;;;;;;;3.87;3.47;;;4.70;99.90;;;;;;4996645;28;20030;-79
2023/12/14 03:24:38;;;;;;;5.57;3.43;;;4.70;99.90;;;;;;4993987;28;20470;-80
2023/12/14 03:27:04;;;;;;;5.63;4.07;;;4.70;99.90;;;;;;4995811;28;20041;-79
2023/12/14 03:29:30;;;;;;;4.50;3.73;;;4.60;99.90;;;;;;4994310;28;20034;-80
2023/12/14 03:31:56;;;;;;;3.80;3.40;;;4.60;99.90;;;;;;4992186;28;20400;-79
2023/12/14 03:34:22;;;;;;;3.67;3.27;;;4.60;99.90;;;;;;4994113;28;20172;-79
2023/12/14 03:36:48;;;;;;;4.07;3.50;;;4.60;99.90;;;;;;4993355;28;20041;-80
2023/12/14 03:39:14;;;;;;;6.57;3.37;;;4.60;99.90;;;;;;4995011;28;20025;-79
2023/12/14 03:41:39;;;;;;;4.33;3.40;;;4.60;99.90;;;;;;4992216;28;20096;-80
2023/12/14 03:44:05;;;;;;;3.93;3.40;;;4.60;99.90;;;;;;4994501;28;20080;-80
2023/12/14 03:46:30;;;;;;;5.80;3.93;;;4.60;99.90;;;;;;4992739;28;20034;-80
2023/12/14 03:48:56;;;;;;;5.03;3.77;;;4.60;99.90;;;;;;4994151;28;20057;-79
2023/12/14 03:51:22;;;;;;;4.23;3.37;;;4.60;99.90;;;;;;4995362;28;20394;-79
2023/12/14 03:53:47;;;;;;;4.17;3.47;;;4.60;99.90;;;;;;4996776;28;20044;-79
2023/12/14 03:56:13;;;;;;;4.50;3.40;;;4.60;99.90;;;;;;4994010;28;20081;-80
2023/12/14 03:58:38;;;;;;;3.03;2.60;;;4.60;99.90;;;;;;4993802;28;20036;-81
2023/12/14 04:01:04;;;;;;;3.83;2.87;;;4.60;99.90;;;;;;4992782;28;20029;-80
2023/12/14 04:03:30;;;;;;;4.07;3.33;;;4.60;99.90;;;;;;4993239;28;20070;-79
2023/12/14 04:05:55;;;;;;;4.00;2.60;;;4.50;99.90;;;;;;4992556;28;20408;-79
2023/12/14 04:08:21;;;;;;;3.90;3.30;;;4.50;99.90;;;;;;4993101;28;20507;-80
2023/12/14 04:10:47;;;;;;;5.27;3.20;;;4.50;99.90;;;;;;4992570;28;20041;-79
2023/12/14 04:13:12;;;;;;;3.40;2.93;;;4.50;99.90;;;;;;4992833;28;20927;-80
2023/12/14 04:15:38;;;;;;;4.17;3.20;;;4.50;99.90;;;;;;4992776;28;20033;-81
2023/12/14 04:18:06;;;;;;;4.43;2.73;;;4.40;99.90;;;;;;4992113;28;20033;-81
2023/12/14 04:20:31;;;;;;;2.97;2.57;;;4.40;99.90;;;;;;4993090;28;20149;-79
2023/12/14 04:22:57;;;;;;;2.97;2.43;;;4.40;99.90;;;;;;4991099;28;20254;-81
2023/12/14 04:25:22;;;;;;;3.23;2.73;;;4.40;99.90;;;;;;4991703;28;20041;-80
2023/12/14 04:27:48;;;;;;;3.60;2.43;;;4.40;99.90;;;;;;4995059;28;20539;-80
2023/12/14 04:30:14;;;;;;;3.07;2.40;;;4.40;99.90;;;;;;4993908;28;20022;-80
2023/12/14 04:32:39;;;;;;;2.93;2.40;;;4.40;99.90;;;;;;4992856;28;20033;-82
2023/12/14 04:35:06;;;;;;;3.10;2.27;;;4.40;99.90;;;;;;4993215;28;20029;-81
2023/12/14 04:37:31;;;;;;;2.80;2.03;;;4.40;99.90;;;;;;4997699;28;20126;-82
2023/12/14 04:40:00;;;;;;;2.43;1.93;;;4.40;99.90;;;;;;4996476;28;20145;-82
2023/12/14 04:42:26;;;;;;;3.53;1.80;;;4.40;99.90;;;;;;4997298;28;20069;-82
2023/12/14 04:44:51;;;;;;;1.97;1.40;;;4.40;99.90;;;;;;4996767;28;20018;-81
2023/12/14 04:47:17;;;;;;;3.07;1.40;;;4.40;99.90;;;;;;5000881;28;20113;-81
2023/12/14 04:49:42;;;;;;;3.47;1.57;;;4.40;99.90;;;;;;5003948;28;20034;-80
2023/12/14 04:52:08;;;;;;;1.90;1.50;;;4.40;99.90;;;;;;5002813;28;20034;-81
2023/12/14 04:54:37;;;;;;;2.83;2.00;;;4.40;99.90;;;;;;5005223;28;20038;-82
2023/12/14 04:57:03;;;;;;;2.83;1.60;;;4.40;99.90;;;;;;5002040;28;20038;-81
2023/12/14 04:59:29;;;;;;;2.20;1.80;;;4.40;99.90;;;;;;4998979;28;20022;-80
2023/12/14 05:01:54;;;;;;;2.60;1.80;;;4.40;99.90;;;;;;5000075;28;20076;-81
2023/12/14 05:04:20;;;;;;;3.93;1.90;;;4.40;99.90;;;;;;5001404;28;20022;-81
2023/12/14 05:06:45;;;;;;;2.40;1.97;;;4.40;99.90;;;;;;5001018;28;20030;-83
2023/12/14 05:09:11;;;;;;;3.70;2.13;;;4.40;99.90;;;;;;5002536;28;20118;-81
2023/12/14 05:11:39;;;;;;;3.53;1.90;;;4.40;99.90;;;;;;5000465;28;20066;-83
2023/12/14 05:14:04;;;;;;;3.57;2.07;;;4.50;99.90;;;;;;4998630;28;20041;-83
2023/12/14 05:16:30;;;;;;;2.73;2.13;;;4.40;99.90;;;;;;4999333;28;20503;-84
2023/12/14 05:18:56;;;;;;;2.67;1.90;;;4.50;99.90;;;;;;4999259;28;20498;-84
2023/12/14 05:21:22;;;;;;;2.63;2.17;;;4.50;99.90;;;;;;5003142;28;20026;-83
2023/12/14 05:23:48;;;;;;;1.90;1.70;;;4.50;99.90;;;;;;4983819;28;20038;-86
2023/12/14 05:26:14;;;;;;;3.17;2.20;;;4.50;99.90;;;;;;5001568;28;20102;-82
2023/12/14 05:28:39;;;;;;;3.20;2.20;;;4.50;99.90;;;;;;5001717;28;20088;-81
2023/12/14 05:31:05;;;;;;;4.00;2.40;;;4.50;99.90;;;;;;5002512;28;20879;-83
2023/12/14 05:33:31;;;;;;;5.27;2.47;;;4.50;99.90;;;;;;5001402;28;20057;-82
2023/12/14 05:35:57;;;;;;;4.30;2.47;;;4.50;99.90;;;;;;5001656;28;20034;-82
2023/12/14 05:38:22;;;;;;;3.77;2.80;;;4.50;99.90;;;;;;5001977;28;20033;-84
2023/12/14 05:40:48;;;;;;;4.93;2.73;;;4.50;99.90;;;;;;5001075;28;20027;-83
2023/12/14 05:43:13;;;;;;;3.23;2.73;;;4.50;99.90;;;;;;4999282;28;20034;-82
2023/12/14 05:45:39;;;;;;;3.90;2.90;;;4.50;99.90;;;;;;5003700;28;20063;-83
2023/12/14 05:48:05;;;;;;;4.23;3.20;;;4.50;99.90;;;;;;5001529;28;21349;-83
2023/12/14 05:50:31;;;;;;;6.83;3.60;;;4.50;99.90;;;;;;5000303;28;20037;-83
2023/12/14 05:52:56;;;;;;;6.20;3.30;;;4.50;99.90;;;;;;5003469;28;20432;-86
2023/12/14 05:55:22;;;;;;;4.73;3.43;;;4.50;99.90;;;;;;4980657;28;20025;-83
2023/12/14 05:57:50;;;;;;;6.13;3.90;;;4.50;99.90;;;;;;4996980;28;20093;-84
2023/12/14 06:00:18;;;;;;;5.73;3.73;;;4.50;99.90;;;;;;5001410;28;20087;-80
2023/12/14 06:02:43;;;;;;;6.63;3.83;;;4.50;99.90;;;;;;4998615;28;20033;-81
2023/12/14 06:05:09;;;;;;;6.97;4.10;;;4.50;99.90;;;;;;4999167;28;20030;-82
2023/12/14 06:07:35;;;;;;;6.47;4.10;;;4.50;99.90;;;;;;5001143;28;20407;-84
2023/12/14 06:10:03;;;;;;;5.97;4.47;;;4.50;99.90;;;;;;4999659;28;20025;-85
2023/12/14 06:12:29;;;;;;;5.93;4.80;;;4.50;99.90;;;;;;4981026;28;20032;-82
2023/12/14 06:14:54;;;;;;;5.20;3.97;;;4.50;99.90;;;;;;4999536;28;20033;-85
2023/12/14 06:17:20;;;;;;;6.03;4.47;;;4.50;99.90;;;;;;4998620;28;20052;-83
2023/12/14 06:19:45;;;;;;;6.80;4.47;;;4.50;99.90;;;;;;4995438;28;20056;-83
2023/12/14 06:22:11;;;;;;;5.73;4.37;;;4.50;99.90;;;;;;4999144;28;20042;-84
2023/12/14 06:24:36;;;;;;;9.13;4.53;;;4.50;99.90;;;;;;5000039;28;20436;-84
2023/12/14 06:27:03;;;;;;;7.30;4.90;;;4.50;99.90;;;;;;4999385;28;20467;-83
2023/12/14 06:29:29;;;;;;;7.57;4.60;;;4.60;99.90;;;;;;4997280;28;20033;-83
2023/12/14 06:31:54;;;;;;;8.50;5.17;;;4.60;99.90;;;;;;4999781;28;20033;-85
2023/12/14 06:34:20;;;;;;;8.10;5.30;;;4.60;99.90;;;;;;4998747;28;20177;-82
2023/12/14 06:36:45;;;;;;;8.07;5.27;;;4.60;99.90;;;;;;4994544;28;20122;-83
2023/12/14 06:39:11;;;;;;;7.90;4.80;;;4.60;99.90;;;;;;5001596;28;20081;-86
2023/12/14 06:41:37;;;;;;;6.77;4.60;;;4.60;99.90;;;;;;5000575;28;20033;-84
2023/12/14 06:44:03;;;;;;;5.87;4.83;;;4.60;99.90;;;;;;4994766;28;20034;-85
2023/12/14 06:46:29;;;;;;;6.27;4.43;;;4.60;99.90;;;;;;4995942;28;20045;-83
2023/12/14 06:48:55;;;;;;;8.60;5.20;;;4.60;99.90;;;;;;4996413;28;20038;-83
2023/12/14 06:51:21;;;;;;;8.43;5.10;;;4.60;99.90;;;;;;4997983;28;20145;-85
2023/12/14 06:53:49;;;;;;;7.90;5.20;;;4.60;99.90;;;;;;4998366;28;20034;-82
2023/12/14 06:56:15;;;;;;;9.50;4.47;;;4.60;99.90;;;;;;5002237;28;20033;-86
2023/12/14 06:58:43;;;;;;;8.03;5.63;;;4.60;99.90;;;;;;4999325;28;20026;-86
2023/12/14 07:01:13;;;;;;;7.73;5.40;;;4.60;99.90;;;;;;4973728;28;20052;-83
2023/12/14 07:03:46;;;;;;;6.97;5.50;;;4.60;99.90;;;;;;4996916;28;20036;-83
2023/12/14 07:06:16;;;;;;;10.90;5.73;;;4.60;99.90;;;;;;4995331;28;20037;-84
2023/12/14 07:08:42;;;;;;;7.37;5.10;;;4.60;99.90;;;;;;4995006;28;20113;-84
2023/12/14 07:11:08;;;;;;;6.70;5.00;;;4.60;99.90;;;;;;4999181;28;20041;-84
2023/12/14 07:13:36;;;;;;;9.03;5.60;;;4.60;99.90;;;;;;4997384;28;20080;-83
2023/12/14 07:16:08;;;;;;;7.50;5.07;;;4.60;99.90;;;;;;4979238;28;20034;-82
2023/12/14 07:18:35;;;;;;;6.50;5.13;;;4.60;99.90;;;;;;4995916;28;20363;-82
2023/12/14 07:21:01;;;;;;;8.73;5.60;;;4.70;99.90;;;;;;4998646;28;20112;-83
2023/12/14 07:23:27;;;;;;;7.07;5.40;;;4.70;99.90;;;;;;4998902;28;20052;-82
2023/12/14 07:25:53;;;;;;;8.23;6.03;;;4.60;99.90;;;;;;4997729;28;20485;-83
2023/12/14 07:28:18;;;;;;;9.60;5.87;;;4.60;99.90;;;;;;4998093;28;20022;-83
2023/12/14 07:30:46;;;;;;;8.83;6.13;;;4.70;99.90;;;;;;4997648;28;20115;-83
2023/12/14 07:33:11;;;;;;;8.73;5.60;;;4.70;99.90;;;;;;4996241;28;20632;-83
2023/12/14 07:35:37;;;;;;;9.83;6.03;;;4.70;99.90;;;;;;4996177;28;20582;-83
2023/12/14 07:38:03;;;;;;;12.53;7.30;;;4.70;99.90;;;;;;4992770;28;20034;-85
2023/12/14 07:40:28;;;;;;;13.20;7.53;;;4.70;99.90;;;;;;4987628;28;20052;-82
2023/12/14 07:42:54;;;;;;;10.17;7.20;;;4.80;99.90;;;;;;4989526;28;21328;-86
2023/12/14 07:45:20;;;;;;;10.63;7.30;;;4.80;99.90;;;;;;4988132;28;20168;-86
2023/12/14 07:47:46;;;;;;;10.77;7.93;;;4.80;99.90;;;;;;4988072;28;20125;-84
2023/12/14 07:50:12;;;;;;;12.93;8.77;;;4.90;99.90;;;;;;4988761;28;20036;-87
2023/12/14 07:52:38;;;;;;;12.53;9.03;;;4.90;99.90;;;;;;4987916;28;20030;-84
2023/12/14 07:55:05;;;;;;;14.73;8.77;;;5.00;99.90;;;;;;4988616;28;20040;-85
2023/12/14 07:57:30;;;;;;;12.80;9.07;;;5.00;99.90;;;;;;4989678;28;20125;-85
2023/12/14 07:59:59;;;;;;;11.80;8.80;;;5.00;99.90;;;;;;4988331;28;20391;-83
2023/12/14 08:02:25;;;;;;;10.80;8.77;;;5.00;99.90;;;;;;4989671;28;20073;-84
2023/12/14 08:04:50;;;;;;;14.83;9.23;;;5.10;99.90;;;;;;4988679;28;20165;-84
2023/12/14 08:07:16;;;;;;;10.70;8.40;;;5.10;99.90;;;;;;4987061;28;20041;-87
2023/12/14 08:09:41;;;;;;;12.07;9.60;;;5.10;99.90;;;;;;4987558;28;20030;-85
2023/12/14 08:12:07;;;;;;;12.53;9.00;;;5.20;99.90;;;;;;4987841;28;20077;-85
2023/12/14 08:14:43;;;;;;;10.33;8.43;;;5.20;99.90;;;;;;4990627;28;20038;-84
2023/12/14 08:17:09;;;;;;;11.50;9.00;;;5.20;99.90;;;;;;4986700;28;20929;-86
2023/12/14 08:19:34;;;;;;;13.23;10.13;;;5.20;99.90;;;;;;4987900;28;20040;-88
2023/12/14 08:22:03;;;;;;;11.43;9.13;;;5.20;99.90;;;;;;4968702;28;20041;-83
2023/12/14 08:24:28;;;;;;;11.07;8.40;;;5.30;99.90;;;;;;4987465;28;21021;-82
2023/12/14 08:26:54;;;;;;;12.17;8.83;;;5.30;99.90;;;;;;4987538;28;20045;-83
2023/12/14 08:29:19;;;;;;;11.90;8.93;;;5.30;99.90;;;;;;4989997;28;20038;-87
2023/12/14 08:31:46;;;;;;;13.73;9.00;;;5.30;99.90;;;;;;4987330;28;20030;-84
2023/12/14 08:34:11;;;;;;;14.67;9.87;;;5.30;99.90;;;;;;4984014;28;21078;-84
2023/12/14 08:36:37;;;;;;;12.80;9.30;;;5.30;99.90;;;;;;4987860;28;20041;-87
2023/12/14 08:39:03;;;;;;;12.07;8.90;;;5.30;99.90;;;;;;4986456;28;20034;-83
2023/12/14 08:41:28;;;;;;;10.43;7.97;;;5.30;99.90;;;;;;4989780;28;20072;-88
2023/12/14 08:43:55;;;;;;;9.77;8.00;;;5.30;99.90;;;;;;4986847;28;20698;-82
2023/12/14 08:46:21;;;;;;;10.57;8.07;;;5.40;99.90;;;;;;4986541;28;20050;-82
2023/12/14 08:48:47;;;;;;;9.53;7.63;;;5.40;99.90;;;;;;4985847;28;20034;-86
2023/12/14 08:51:12;;;;;;;10.40;7.00;;;5.40;99.90;;;;;;4970209;28;20040;-85
2023/12/14 08:53:38;;;;;;;9.03;6.87;;;5.40;99.90;;;;;;4986182;28;20037;-84
2023/12/14 08:56:04;;;;;;;9.83;6.67;;;5.50;99.90;;;;;;4985765;28;20033;-84
2023/12/14 08:58:29;;;;;;;9.83;7.13;;;5.50;99.90;;;;;;4987744;28;20176;-82
2023/12/14 09:00:55;;;;;;;8.63;6.87;;;5.50;99.90;;;;;;4987934;28;20030;-85
2023/12/14 09:03:21;;;;;;;10.37;7.10;;;5.50;99.90;;;;;;4987285;28;20030;-83
2023/12/14 09:05:46;;;;;;;10.13;7.27;;;5.50;99.90;;;;;;4988452;28;20454;-86
2023/12/14 09:08:12;;;;;;;9.17;7.43;;;5.60;99.90;;;;;;4986767;28;20045;-90
2023/12/14 09:10:40;;;;;;;11.00;7.90;;;5.60;99.90;;;;;;4988076;28;20897;-87
2023/12/14 09:13:06;;;;;;;11.23;7.70;;;5.60;99.90;;;;;;4985313;28;20035;-86
2023/12/14 09:15:32;;;;;;;11.00;7.50;;;5.50;99.90;;;;;;4987874;28;20759;-86
2023/12/14 09:17:58;;;;;;;10.37;7.20;;;5.50;99.90;;;;;;4987432;28;20033;-83
2023/12/14 09:20:24;;;;;;;8.33;6.60;;;5.50;99.90;;;;;;4986320;28;20136;-86
2023/12/14 09:22:50;;;;;;;10.83;6.80;;;5.50;99.90;;;;;;4985504;28;20034;-87
2023/12/14 09:25:16;;;;;;;9.07;6.57;;;5.50;99.90;;;;;;4988232;28;20030;-86
2023/12/14 09:27:41;;;;;;;8.20;6.40;;;5.50;99.90;;;;;;4987792;28;20081;-87
2023/12/14 09:30:07;;;;;;;8.77;6.80;;;5.50;99.90;;;;;;4987230;28;20037;-89
2023/12/14 09:32:33;;;;;;;9.27;7.10;;;5.50;99.90;;;;;;4968132;28;20045;-83
2023/12/14 09:34:59;;;;;;;7.63;6.33;;;5.50;99.90;;;;;;4990622;28;20061;-82
2023/12/14 09:37:24;;;;;;;8.67;7.27;;;5.60;99.90;;;;;;4990027;28;20041;-86
2023/12/14 09:39:50;;;;;;;9.00;6.77;;;5.60;99.90;;;;;;4989449;28;20074;-86
2023/12/14 09:42:19;;;;;;;9.37;6.47;;;5.60;99.90;;;;;;4988968;28;20128;-87
2023/12/14 09:44:46;;;;;;;8.90;6.73;;;5.60;99.90;;;;;;4991688;28;20044;-86
2023/12/14 09:47:12;;;;;;;7.10;5.83;;;5.70;99.90;;;;;;4991244;28;20312;-84
2023/12/14 09:49:40;;;;;;;8.37;6.20;;;5.70;99.90;;;;;;4988151;28;20109;-87
2023/12/14 09:52:06;;;;;;;11.63;6.33;;;5.70;99.90;;;;;;4988026;28;20061;-86
2023/12/14 09:54:31;;;;;;;10.20;6.43;;;5.70;99.90;;;;;;4989995;28;20205;-82
2023/12/14 09:56:57;;;;;;;8.60;7.40;;;5.70;99.90;;;;;;4990718;28;20088;-84
2023/12/14 09:59:23;;;;;;;10.07;6.77;;;5.70;99.90;;;;;;4989693;28;20080;-87
2023/12/14 10:01:48;;;;;;;8.03;6.40;;;5.70;99.90;;;;;;4990836;28;20034;-86
2023/12/14 10:04:16;;;;;;;8.33;6.10;;;5.80;99.90;;;;;;4991490;28;20091;-85
2023/12/14 10:06:43;;;;;;;7.23;5.90;;;5.80;99.90;;;;;;4991986;28;20038;-90
2023/12/14 10:09:09;;;;;;;7.70;6.07;;;5.80;99.90;;;;;;4990741;28;20119;-86
2023/12/14 10:11:36;;;;;;;10.07;6.47;;;5.80;99.90;;;;;;4992835;28;21335;-85
2023/12/14 10:14:03;;;;;;;10.10;7.20;;;5.80;99.90;;;;;;4990040;28;21331;-89
2023/12/14 10:16:33;;;;;;;11.90;6.90;;;5.80;99.90;;;;;;4991292;28;20194;-85
2023/12/14 10:18:59;;;;;;;7.87;6.67;;;5.70;99.90;;;;;;4990211;28;20029;-91
2023/12/14 10:21:26;;;;;;;8.67;6.60;;;5.70;99.90;;;;;;4991016;28;20215;-85
2023/12/14 10:23:55;;;;;;;9.47;6.50;;;5.80;99.90;;;;;;4989924;28;20062;-85
2023/12/14 10:26:23;;;;;;;7.47;6.40;;;5.80;99.90;;;;;;4989739;28;20137;-89
2023/12/14 10:28:50;;;;;;;8.20;6.73;;;5.80;99.90;;;;;;4989968;28;20473;-86
2023/12/14 10:31:16;;;;;;;8.27;6.77;;;5.70;99.90;;;;;;4989935;28;20058;-84
2023/12/14 10:33:41;;;;;;;8.27;6.73;;;5.70;99.90;;;;;;4990678;28;20117;-84
2023/12/14 10:36:08;;;;;;;9.07;6.87;;;5.70;99.90;;;;;;4989726;28;20038;-89
2023/12/14 10:38:36;;;;;;;9.47;6.47;;;5.80;99.90;;;;;;4990854;28;20449;-87
2023/12/14 10:41:02;;;;;;;10.17;7.20;;;5.80;99.90;;;;;;4988357;28;20508;-85
2023/12/14 10:43:29;;;;;;;8.37;6.83;;;5.80;99.90;;;;;;4995136;28;20087;-84
2023/12/14 10:45:55;;;;;;;9.60;7.07;;;5.90;99.90;;;;;;4996435;28;20026;-85
2023/12/14 10:48:21;;;;;;;9.33;6.50;;;6.00;99.90;;;;;;4998845;28;20121;-85
2023/12/14 10:50:50;;;;;;;7.87;6.37;;;6.00;99.90;;;;;;4997368;28;20116;-85
2023/12/14 10:53:16;;;;;;;7.90;6.40;;;6.10;99.90;;;;;;4979452;28;20492;-83
2023/12/14 10:55:44;;;;;;;8.77;6.70;;;6.10;99.90;;;;;;4995124;28;20030;-83
2023/12/14 10:58:11;;;;;;;6.83;5.30;;;6.10;99.90;;;;;;4999572;28;20109;-84
2023/12/14 11:00:37;;;;;;;7.63;5.13;;;6.10;99.90;;;;;;4997890;28;20042;-81
2023/12/14 11:03:04;;;;;;;7.33;5.20;;;6.20;99.90;;;;;;4997996;28;20109;-85
2023/12/14 11:05:33;;;;;;;8.03;4.73;;;6.20;99.90;;;;;;4999894;28;20037;-83
2023/12/14 11:08:09;;;;;;;5.97;4.53;;;6.30;99.90;;;;;;4995749;28;20069;-82
2023/12/14 11:10:41;;;;;;;;;;;6.30;99.90;;;;;;4996389;28;20180;-83
2023/12/14 11:13:10;;;;;;;5.57;2.60;;;6.40;99.90;;;;;;4999230;28;19932;-85
2023/12/14 11:15:36;;;;;;;4.07;2.53;;;6.40;99.90;;;;;;4999020;28;20030;-81
2023/12/14 11:18:08;;;;;;;3.40;3.00;;;6.40;99.90;;;;;;4996563;28;20037;-83
2023/12/14 11:20:46;;;;;;;3.97;2.57;;;6.40;99.90;;;;;;4998297;28;20080;-83
2023/12/14 11:23:17;;;;;;;3.20;2.67;;;6.40;99.90;;;;;;4998039;28;20034;-88
2023/12/14 11:25:43;;;;;;;3.43;2.63;;;6.60;99.90;;;;;;4999503;28;20543;-89
2023/12/14 11:28:09;;;;;;;2.77;1.90;;;6.70;99.90;;;;;;5002249;28;20041;-82
2023/12/14 11:30:36;;;;;;;3.83;2.10;;;6.90;99.90;;;;;;5002955;28;20046;-84
2023/12/14 11:33:02;;;;;;;2.60;2.00;;;7.00;99.90;;;;;;5000992;28;20068;-85
2023/12/14 11:35:28;;;;;;;2.87;2.27;;;7.10;99.90;;;;;;5000664;28;20054;-85
2023/12/14 11:37:56;;;;;;;2.40;1.77;;;7.10;99.90;;;;;;4999923;28;20452;-84
2023/12/14 11:40:22;;;;;;;3.73;1.87;;;7.00;99.90;;;;;;4999958;28;20551;-86
2023/12/14 11:43:08;;;;;;;2.73;1.70;;;7.00;99.90;;;;;;4997848;28;20027;-83
2023/12/14 11:45:35;;;;;;;3.00;1.70;;;6.90;99.90;;;;;;5001901;28;20029;-85
2023/12/14 11:48:04;;;;;;;2.87;1.77;;;6.80;99.90;;;;;;4999510;28;20101;-83
2023/12/14 11:50:30;;;;;;;3.43;1.70;;;6.80;99.90;;;;;;5000576;28;20030;-85
2023/12/14 11:52:55;;;;;;;2.20;1.70;;;6.80;99.90;;;;;;5001444;28;20049;-83
2023/12/14 11:55:21;;;;;;;2.07;1.40;;;6.70;99.90;;;;;;4999138;28;20081;-83
2023/12/14 11:57:48;;;;;;;2.33;1.60;;;6.80;99.90;;;;;;5002402;28;20030;-88
2023/12/14 12:00:14;;;;;;;2.53;1.70;;;6.80;99.90;;;;;;5003167;28;20040;-84
2023/12/14 12:02:43;;;;;;;2.50;1.70;;;6.80;99.90;;;;;;5003663;28;20029;-87
2023/12/14 12:05:13;;;;;;;2.73;1.83;;;6.90;99.90;;;;;;5002635;28;20030;-87
2023/12/14 12:07:39;;;;;;;2.37;1.73;;;6.90;99.90;;;;;;5002259;28;20072;-84
2023/12/14 12:10:06;;;;;;;2.47;1.73;;;7.00;99.90;;;;;;5008521;28;20034;-85
2023/12/14 12:12:33;;;;;;;3.63;1.93;;;7.00;99.90;;;;;;5003310;28;20026;-84
2023/12/14 12:14:59;;;;;;;2.53;1.67;;;7.00;99.90;;;;;;4993813;28;20113;-88
2023/12/14 12:17:26;;;;;;;3.03;1.80;;;6.90;99.90;;;;;;4996633;28;20690;-83
2023/12/14 12:19:51;;;;;;;3.07;1.70;;;6.90;99.90;;;;;;4993813;28;20038;-85
2023/12/14 12:22:17;;;;;;;3.50;1.77;;;6.90;99.90;;;;;;4992739;28;20505;-84
2023/12/14 12:24:42;;;;;;;3.23;1.73;;;6.90;99.90;;;;;;4995454;28;20027;-86
2023/12/14 12:27:09;;;;;;;2.50;1.60;;;6.80;99.90;;;;;;4994706;28;20030;-85
2023/12/14 12:29:34;;;;;;;2.67;1.70;;;6.80;99.90;;;;;;4996380;28;20046;-89
2023/12/14 12:32:00;;;;;;;3.23;1.73;;;6.70;99.90;;;;;;4994213;28;20104;-85
2023/12/14 12:34:26;;;;;;;3.43;1.70;;;6.70;99.90;;;;;;4991435;28;20034;-83
2023/12/14 12:36:51;;;;;;;2.27;1.67;;;6.70;99.90;;;;;;4994667;28;20034;-85
2023/12/14 12:39:17;;;;;;;4.33;1.70;;;6.70;99.90;;;;;;4976079;28;20091;-87
2023/12/14 12:41:43;;;;;;;2.40;1.80;;;6.70;99.90;;;;;;4994025;28;20032;-86
2023/12/14 12:44:09;;;;;;;2.70;1.70;;;6.80;99.90;;;;;;4976108;28;20061;-92
2023/12/14 12:46:35;;;;;;;6.47;1.90;;;6.80;99.90;;;;;;4994854;28;20038;-89
2023/12/14 12:49:02;;;;;;;2.43;1.90;;;6.70;99.90;;;;;;4996572;28;20053;-84